createdAt,value
2018-12-05T00:01:57.331Z,5.57
2018-12-05T00:04:24.783Z,11.60
2018-12-05T00:06:52.240Z,9.23
2018-12-05T00:09:19.675Z,8.27
2018-12-05T00:11:47.146Z,7.00
2018-12-05T00:14:14.594Z,9.13
2018-12-05T00:16:42.049Z,9.43
2018-12-05T00:19:09.475Z,15.40
2018-12-05T00:21:36.934Z,10.17
2018-12-05T00:24:04.442Z,6.07
2018-12-05T00:26:31.924Z,10.77
2018-12-05T00:28:59.411Z,10.23
2018-12-05T00:31:26.862Z,8.90
2018-12-05T00:33:54.323Z,17.20
2018-12-05T00:36:21.785Z,15.40
2018-12-05T00:38:49.240Z,18.23
2018-12-05T00:41:16.678Z,17.47
2018-12-05T00:43:44.152Z,18.33
2018-12-05T00:46:11.583Z,20.17
2018-12-05T00:48:39.066Z,23.63
2018-12-05T00:51:06.524Z,22.93
2018-12-05T00:53:34.011Z,23.07
2018-12-05T00:56:01.498Z,21.60
2018-12-05T00:58:29.035Z,16.40
2018-12-05T01:00:56.562Z,21.20
2018-12-05T01:03:24.031Z,22.37
2018-12-05T01:05:51.531Z,17.27
2018-12-05T01:08:18.969Z,22.93
2018-12-05T01:10:46.547Z,25.90
2018-12-05T01:13:13.983Z,30.00
2018-12-05T01:15:41.443Z,19.53
2018-12-05T01:18:08.877Z,23.00
2018-12-05T01:20:36.400Z,24.27
2018-12-05T01:23:03.879Z,26.60
2018-12-05T01:25:31.546Z,32.07
2018-12-05T01:27:58.999Z,25.93
2018-12-05T01:30:26.439Z,26.27
2018-12-05T01:32:53.894Z,26.33
2018-12-05T01:35:21.327Z,22.53
2018-12-05T01:37:48.881Z,27.63
2018-12-05T01:40:16.322Z,24.07
2018-12-05T01:42:44.010Z,24.10
2018-12-05T01:45:11.531Z,35.47
2018-12-05T01:47:39.005Z,24.97
2018-12-05T01:50:06.596Z,33.37
2018-12-05T01:52:34.020Z,28.60
2018-12-05T01:55:01.479Z,24.73
2018-12-05T01:57:28.940Z,25.93
2018-12-05T01:59:56.368Z,20.93
2018-12-05T02:02:23.814Z,29.73
2018-12-05T02:04:51.375Z,25.53
2018-12-05T02:07:18.809Z,23.20
2018-12-05T02:09:46.405Z,18.47
2018-12-05T02:12:13.953Z,23.57
2018-12-05T02:14:41.406Z,30.87
2018-12-05T02:17:08.867Z,25.07
2018-12-05T02:19:36.299Z,25.47
2018-12-05T02:22:03.805Z,21.77
2018-12-05T02:24:31.262Z,21.63
2018-12-05T02:26:58.716Z,30.53
2018-12-05T02:29:28.132Z,24.00
2018-12-05T02:31:55.579Z,22.80
2018-12-05T02:34:23.139Z,24.40
2018-12-05T02:36:51.005Z,23.87
2018-12-05T02:39:18.577Z,29.33
2018-12-05T02:41:46.116Z,26.83
2018-12-05T02:44:13.580Z,27.60
2018-12-05T02:46:41.127Z,30.20
2018-12-05T02:49:08.578Z,26.03
2018-12-05T02:51:36.079Z,23.97
2018-12-05T02:54:03.639Z,26.47
2018-12-05T02:56:31.155Z,22.13
2018-12-05T02:58:58.619Z,29.50
2018-12-05T03:01:26.108Z,27.37
2018-12-05T03:03:53.563Z,31.20
2018-12-05T03:06:21.010Z,29.63
2018-12-05T03:08:48.447Z,24.87
2018-12-05T03:11:15.919Z,29.73
2018-12-05T03:13:43.366Z,25.03
2018-12-05T03:16:10.824Z,34.20
2018-12-05T03:18:38.311Z,24.53
2018-12-05T03:21:05.748Z,28.90
2018-12-05T03:23:33.215Z,27.03
2018-12-05T03:26:00.694Z,21.90
2018-12-05T03:28:28.175Z,25.00
2018-12-05T03:30:55.671Z,27.33
2018-12-05T03:33:23.153Z,31.23
2018-12-05T03:35:50.623Z,23.40
2018-12-05T03:38:18.069Z,23.37
2018-12-05T03:40:45.538Z,25.40
2018-12-05T03:43:13.014Z,25.50
2018-12-05T03:45:40.505Z,31.93
2018-12-05T03:48:07.991Z,22.60
2018-12-05T03:50:35.474Z,26.83
2018-12-05T03:53:03.009Z,30.10
2018-12-05T03:55:30.475Z,28.70
2018-12-05T03:57:57.958Z,26.17
2018-12-05T04:00:25.410Z,23.20
2018-12-05T04:02:52.884Z,31.47
2018-12-05T04:05:20.344Z,27.57
2018-12-05T04:07:47.841Z,33.67
2018-12-05T04:10:15.295Z,29.20
2018-12-05T04:12:42.746Z,33.17
2018-12-05T04:15:10.222Z,31.27
2018-12-05T04:17:37.681Z,28.07
2018-12-05T04:20:05.291Z,31.87
2018-12-05T04:22:32.776Z,33.77
2018-12-05T04:25:00.265Z,28.43
2018-12-05T04:27:27.711Z,32.90
2018-12-05T04:29:55.166Z,27.47
2018-12-05T04:32:22.645Z,39.67
2018-12-05T04:34:50.204Z,30.47
2018-12-05T04:37:17.691Z,27.87
2018-12-05T04:39:45.160Z,27.33
2018-12-05T04:42:12.603Z,29.13
2018-12-05T04:44:40.148Z,24.27
2018-12-05T04:47:07.611Z,28.13
2018-12-05T04:49:35.072Z,27.43
2018-12-05T04:52:02.546Z,25.13
2018-12-05T04:54:29.991Z,25.80
2018-12-05T04:56:57.458Z,27.17
2018-12-05T04:59:24.904Z,24.20
2018-12-05T05:01:52.411Z,28.93
2018-12-05T05:04:19.880Z,26.10
2018-12-05T05:06:47.382Z,25.63
2018-12-05T05:09:14.923Z,29.47
2018-12-05T05:11:42.498Z,20.13
2018-12-05T05:14:09.988Z,27.77
2018-12-05T05:16:37.452Z,30.27
2018-12-05T05:19:04.985Z,27.77
2018-12-05T05:21:32.475Z,23.93
2018-12-05T05:24:00.031Z,25.43
2018-12-05T05:26:27.527Z,30.23
2018-12-05T05:28:54.976Z,29.47
2018-12-05T05:31:23.816Z,27.40
2018-12-05T05:33:51.518Z,31.27
2018-12-05T05:36:19.035Z,25.90
2018-12-05T05:38:46.518Z,38.80
2018-12-05T05:41:14.239Z,29.23
2018-12-05T05:43:41.734Z,33.63
2018-12-05T05:46:09.630Z,31.13
2018-12-05T05:48:37.111Z,37.33
2018-12-05T05:51:04.643Z,40.27
2018-12-05T05:53:32.090Z,33.40
2018-12-05T05:55:59.636Z,29.77
2018-12-05T05:58:27.070Z,35.40
2018-12-05T06:00:54.527Z,32.57
2018-12-05T06:03:22.019Z,26.97
2018-12-05T06:05:49.472Z,33.97
2018-12-05T06:08:16.943Z,33.97
2018-12-05T06:10:44.407Z,35.40
2018-12-05T06:13:11.883Z,42.50
2018-12-05T06:15:39.358Z,40.33
2018-12-05T06:18:06.851Z,37.60
2018-12-05T06:20:34.342Z,34.53
2018-12-05T06:23:01.873Z,34.60
2018-12-05T06:25:29.338Z,40.23
2018-12-05T06:27:56.804Z,32.90
2018-12-05T06:30:24.305Z,36.93
2018-12-05T06:32:51.759Z,26.30
2018-12-05T06:35:19.216Z,37.77
2018-12-05T06:37:46.696Z,33.87
2018-12-05T06:40:14.140Z,37.00
2018-12-05T06:42:41.700Z,32.87
2018-12-05T06:45:09.147Z,35.90
2018-12-05T06:47:36.628Z,32.53
2018-12-05T06:50:04.544Z,37.90
2018-12-05T06:52:32.015Z,34.87
2018-12-05T06:54:59.495Z,38.83
2018-12-05T06:57:26.942Z,33.37
2018-12-05T06:59:54.432Z,32.40
2018-12-05T07:02:21.887Z,41.33
2018-12-05T07:04:49.331Z,39.63
2018-12-05T07:07:17.651Z,38.23
2018-12-05T07:09:45.359Z,37.03
2018-12-05T07:12:12.839Z,36.73
2018-12-05T07:14:40.297Z,40.27
2018-12-05T07:17:07.759Z,42.83
2018-12-05T07:19:35.215Z,42.43
2018-12-05T07:22:02.707Z,39.90
2018-12-05T07:24:30.171Z,46.70
2018-12-05T07:26:57.642Z,45.20
2018-12-05T07:29:25.099Z,44.37
2018-12-05T07:31:52.578Z,45.87
2018-12-05T07:34:20.961Z,47.53
2018-12-05T07:36:48.439Z,45.23
2018-12-05T07:39:15.883Z,44.43
2018-12-05T07:41:43.339Z,50.63
2018-12-05T07:44:10.819Z,55.57
2018-12-05T07:46:38.277Z,45.43
2018-12-05T07:49:05.883Z,49.80
2018-12-05T07:51:33.343Z,49.87
2018-12-05T07:54:00.838Z,44.47
2018-12-05T07:56:28.308Z,60.43
2018-12-05T07:58:55.796Z,57.07
2018-12-05T08:01:23.364Z,53.23
2018-12-05T08:03:50.846Z,52.13
2018-12-05T08:06:18.382Z,52.83
2018-12-05T08:08:45.875Z,60.93
2018-12-05T08:11:13.363Z,60.80
2018-12-05T08:13:40.807Z,57.43
2018-12-05T08:16:08.286Z,48.87
2018-12-05T08:18:35.756Z,50.20
2018-12-05T08:21:03.229Z,53.63
2018-12-05T08:23:30.747Z,63.07
2018-12-05T08:25:58.258Z,58.70
2018-12-05T08:28:25.735Z,58.03
2018-12-05T08:30:53.206Z,54.87
2018-12-05T08:33:20.671Z,58.07
2018-12-05T08:35:48.140Z,56.87
2018-12-05T08:38:15.595Z,56.33
2018-12-05T08:40:43.077Z,50.80
2018-12-05T08:43:10.521Z,54.83
2018-12-05T08:45:37.999Z,59.87
2018-12-05T08:48:05.467Z,61.57
2018-12-05T08:50:32.977Z,61.27
2018-12-05T08:53:00.498Z,52.43
2018-12-05T08:55:27.971Z,61.17
2018-12-05T08:57:55.427Z,59.50
2018-12-05T09:00:22.978Z,68.07
2018-12-05T09:02:50.429Z,65.97
2018-12-05T09:05:17.895Z,59.93
2018-12-05T09:07:45.380Z,59.17
2018-12-05T09:10:12.922Z,64.57
2018-12-05T09:12:40.431Z,60.67
2018-12-05T09:15:08.043Z,64.90
2018-12-05T09:17:35.499Z,65.93
2018-12-05T09:20:03.126Z,70.23
2018-12-05T09:22:30.618Z,57.43
2018-12-05T09:24:58.087Z,67.47
2018-12-05T09:27:25.536Z,68.50
2018-12-05T09:29:53.087Z,76.87
2018-12-05T09:32:20.534Z,66.17
2018-12-05T09:34:47.991Z,74.63
2018-12-05T09:37:15.517Z,76.57
2018-12-05T09:39:42.969Z,72.93
2018-12-05T09:42:10.440Z,76.83
2018-12-05T09:44:37.930Z,77.50
2018-12-05T09:47:05.396Z,69.57
2018-12-05T09:49:32.935Z,67.70
2018-12-05T09:52:00.444Z,74.57
2018-12-05T09:54:27.967Z,73.53
2018-12-05T09:56:55.435Z,76.33
2018-12-05T09:59:22.911Z,72.47
2018-12-05T10:01:50.401Z,83.17
2018-12-05T10:04:17.857Z,75.43
2018-12-05T10:06:45.339Z,81.43
2018-12-05T10:09:12.815Z,71.70
2018-12-05T10:11:40.294Z,78.27
2018-12-05T10:14:07.779Z,66.97
2018-12-05T10:16:35.221Z,72.57
2018-12-05T10:19:02.675Z,63.63
2018-12-05T10:21:30.146Z,64.10
2018-12-05T10:23:57.642Z,64.73
2018-12-05T10:26:25.106Z,57.07
2018-12-05T10:28:52.621Z,63.30
2018-12-05T10:31:20.094Z,59.83
2018-12-05T10:33:47.547Z,59.67
2018-12-05T10:38:47.990Z,58.80
2018-12-05T10:41:15.446Z,50.53
2018-12-05T10:43:42.990Z,45.77
2018-12-05T10:46:10.431Z,53.47
2018-12-05T10:48:37.887Z,55.43
2018-12-05T10:51:05.363Z,49.43
2018-12-05T10:53:32.849Z,44.63
2018-12-05T10:56:00.321Z,46.20
2018-12-05T10:58:27.771Z,47.97
2018-12-05T11:01:00.779Z,47.97
2018-12-05T11:03:34.508Z,50.60
2018-12-05T11:06:08.299Z,48.23
2018-12-05T11:08:41.418Z,49.27
2018-12-05T11:11:14.668Z,38.73
2018-12-05T11:13:47.827Z,43.47
2018-12-05T11:19:21.812Z,47.47
2018-12-05T11:21:55.169Z,41.57
2018-12-05T11:24:28.395Z,41.90
2018-12-05T11:26:55.935Z,40.20
2018-12-05T11:29:23.414Z,41.30
2018-12-05T11:31:51.212Z,37.37
2018-12-05T11:34:18.664Z,33.77
2018-12-05T11:36:46.143Z,39.60
2018-12-05T11:39:13.592Z,35.43
2018-12-05T11:41:41.074Z,36.60
2018-12-05T11:44:08.532Z,31.27
2018-12-05T11:46:36.006Z,35.60
2018-12-05T11:49:03.583Z,28.50
2018-12-05T11:51:31.083Z,27.27
2018-12-05T11:53:58.564Z,35.10
2018-12-05T11:56:26.020Z,34.63
2018-12-05T11:58:53.515Z,30.20
2018-12-05T12:01:20.990Z,34.63
2018-12-05T12:03:48.435Z,29.60
2018-12-05T12:06:15.911Z,26.53
2018-12-05T12:08:43.351Z,35.23
2018-12-05T12:11:10.918Z,29.60
2018-12-05T12:13:38.414Z,33.33
2018-12-05T12:16:05.951Z,31.80
2018-12-05T12:18:33.490Z,31.87
2018-12-05T12:21:00.961Z,31.13
2018-12-05T12:23:28.416Z,34.53
2018-12-05T12:25:55.893Z,32.00
2018-12-05T12:28:23.363Z,27.83
2018-12-05T12:30:50.826Z,26.47
2018-12-05T12:33:18.311Z,28.47
2018-12-05T12:35:45.858Z,27.20
2018-12-05T12:38:13.334Z,31.30
2018-12-05T12:40:40.821Z,21.77
2018-12-05T12:43:08.295Z,30.47
2018-12-05T12:45:35.783Z,22.07
2018-12-05T12:48:03.264Z,26.27
2018-12-05T12:50:30.738Z,22.63
2018-12-05T12:52:58.208Z,32.03
2018-12-05T12:55:25.725Z,28.20
2018-12-05T12:57:53.222Z,28.00
2018-12-05T13:00:20.699Z,26.13
2018-12-05T13:02:48.168Z,25.97
2018-12-05T13:05:15.623Z,22.60
2018-12-05T13:07:43.100Z,27.57
2018-12-05T13:10:10.563Z,21.97
2018-12-05T13:12:38.029Z,23.13
2018-12-05T13:15:05.557Z,22.00
2018-12-05T13:17:33.035Z,23.97
2018-12-05T13:20:00.493Z,26.23
2018-12-05T13:22:27.983Z,21.23
2018-12-05T13:24:55.451Z,22.80
2018-12-05T13:27:23.177Z,21.47
2018-12-05T13:29:50.639Z,22.30
2018-12-05T13:32:18.110Z,27.87
2018-12-05T13:34:45.589Z,21.73
2018-12-05T13:37:13.047Z,26.80
2018-12-05T13:39:40.502Z,24.67
2018-12-05T13:42:07.987Z,22.33
2018-12-05T13:44:35.455Z,22.50
2018-12-05T13:47:02.987Z,25.67
2018-12-05T13:49:30.515Z,28.67
2018-12-05T13:51:57.999Z,20.43
2018-12-05T13:54:25.471Z,23.27
2018-12-05T13:56:52.955Z,27.10
2018-12-05T13:59:20.406Z,22.00
2018-12-05T14:01:47.887Z,24.10
2018-12-05T14:04:15.362Z,30.00
2018-12-05T14:06:42.852Z,26.50
2018-12-05T14:09:10.334Z,26.67
2018-12-05T14:11:37.843Z,27.43
2018-12-05T14:14:05.490Z,23.10
2018-12-05T14:16:33.003Z,24.70
2018-12-05T14:19:00.531Z,21.50
2018-12-05T14:21:28.015Z,28.37
2018-12-05T14:23:55.495Z,21.87
2018-12-05T14:26:22.936Z,29.80
2018-12-05T14:28:50.391Z,27.93
2018-12-05T14:31:17.883Z,26.80
2018-12-05T14:33:45.338Z,30.40
2018-12-05T14:36:12.848Z,27.30
2018-12-05T14:38:40.313Z,21.60
2018-12-05T14:41:07.813Z,26.83
2018-12-05T14:43:35.286Z,32.60
2018-12-05T14:46:02.766Z,26.63
2018-12-05T14:48:30.235Z,30.57
2018-12-05T14:50:57.730Z,31.43
2018-12-05T14:53:25.195Z,29.20
2018-12-05T14:55:52.654Z,32.37
2018-12-05T14:58:20.138Z,23.77
2018-12-05T15:00:47.651Z,30.27
2018-12-05T15:03:15.099Z,26.83
2018-12-05T15:05:42.575Z,38.27
2018-12-05T15:08:10.098Z,36.57
2018-12-05T15:10:37.561Z,28.97
2018-12-05T15:13:05.039Z,33.83
2018-12-05T15:15:32.496Z,33.27
2018-12-05T15:17:59.975Z,33.43
2018-12-05T15:20:27.643Z,27.80
2018-12-05T15:22:55.204Z,41.07
2018-12-05T15:25:22.728Z,37.70
2018-12-05T15:27:50.229Z,41.27
2018-12-05T15:30:18.071Z,37.70
2018-12-05T15:32:45.531Z,38.57
2018-12-05T15:35:13.013Z,38.87
2018-12-05T15:37:40.567Z,27.40
2018-12-05T15:40:08.107Z,31.67
2018-12-05T15:42:35.848Z,28.03
2018-12-05T15:45:04.482Z,33.50
2018-12-05T15:47:32.180Z,35.37
2018-12-05T15:49:59.712Z,32.37
2018-12-05T15:52:27.223Z,33.37
2018-12-05T15:54:54.725Z,34.17
2018-12-05T15:57:22.179Z,41.47
2018-12-05T15:59:49.622Z,38.27
2018-12-05T16:02:17.175Z,32.90
2018-12-05T16:04:44.642Z,35.90
2018-12-05T16:07:12.113Z,34.27
2018-12-05T16:09:39.559Z,35.27
2018-12-05T16:12:07.035Z,34.73
2018-12-05T16:14:34.562Z,35.90
2018-12-05T16:17:02.026Z,33.20
2018-12-05T16:19:29.681Z,35.00
2018-12-05T16:21:57.114Z,33.03
2018-12-05T16:24:24.592Z,31.20
2018-12-05T16:26:52.063Z,34.70
2018-12-05T16:29:19.543Z,29.47
2018-12-05T16:31:47.005Z,28.50
2018-12-05T16:34:14.455Z,31.57
2018-12-05T16:36:41.932Z,30.30
2018-12-05T16:39:09.455Z,38.23
2018-12-05T16:41:36.931Z,33.03
2018-12-05T16:44:04.384Z,35.03
2018-12-05T16:46:31.879Z,30.97
2018-12-05T16:48:59.366Z,36.17
2018-12-05T16:51:26.923Z,35.30
2018-12-05T16:53:54.400Z,36.63
2018-12-05T16:56:21.899Z,38.13
2018-12-05T16:58:49.366Z,30.27
2018-12-05T17:01:16.870Z,31.37
2018-12-05T17:03:44.542Z,31.63
2018-12-05T17:06:12.067Z,34.10
2018-12-05T17:08:39.579Z,25.50
2018-12-05T17:11:07.046Z,33.37
2018-12-05T17:13:36.467Z,26.37
2018-12-05T17:16:04.065Z,28.93
2018-12-05T17:18:31.583Z,32.53
2018-12-05T17:20:59.053Z,32.30
2018-12-05T17:23:26.523Z,28.90
2018-12-05T17:25:53.979Z,22.13
2018-12-05T17:28:21.463Z,22.10
2018-12-05T17:30:48.935Z,30.40
2018-12-05T17:33:16.379Z,20.87
2018-12-05T17:35:43.849Z,34.47
2018-12-05T17:38:11.304Z,22.20
2018-12-05T17:40:38.849Z,24.10
2018-12-05T17:43:06.323Z,24.07
2018-12-05T17:45:33.785Z,18.40
2018-12-05T17:48:01.247Z,20.73
2018-12-05T17:50:28.700Z,18.40
2018-12-05T17:52:56.162Z,23.37
2018-12-05T17:55:23.599Z,24.30
2018-12-05T17:57:51.068Z,19.47
2018-12-05T18:00:18.694Z,21.37
2018-12-05T18:02:46.136Z,15.27
2018-12-05T18:05:13.931Z,20.70
2018-12-05T18:07:41.466Z,18.03
2018-12-05T18:10:09.139Z,19.77
2018-12-05T18:12:36.604Z,20.17
2018-12-05T18:15:04.680Z,11.77
2018-12-05T18:17:32.147Z,21.80
2018-12-05T18:19:59.679Z,17.83
2018-12-05T18:22:27.254Z,10.20
2018-12-05T18:24:54.688Z,15.13
2018-12-05T18:27:22.162Z,21.17
2018-12-05T18:29:49.603Z,18.17
2018-12-05T18:32:17.126Z,16.40
2018-12-05T18:34:44.584Z,17.57
2018-12-05T18:37:12.115Z,20.83
2018-12-05T18:39:40.438Z,12.03
2018-12-05T18:42:08.179Z,9.37
2018-12-05T18:44:35.622Z,13.90
2018-12-05T18:47:03.101Z,12.23
2018-12-05T18:49:30.608Z,11.87
2018-12-05T18:51:58.050Z,12.83
2018-12-05T18:54:25.524Z,12.97
2018-12-05T18:56:53.000Z,11.50
2018-12-05T18:59:20.512Z,10.13
2018-12-05T19:01:48.032Z,10.73
2018-12-05T19:04:15.591Z,11.13
2018-12-05T19:06:43.082Z,17.33
2018-12-05T19:09:10.519Z,16.07
2018-12-05T19:11:37.991Z,21.23
2018-12-05T19:14:11.262Z,18.57
2018-12-05T19:16:38.730Z,11.70
2018-12-05T19:19:06.262Z,13.03
2018-12-05T19:21:33.735Z,11.57
2018-12-05T19:24:01.179Z,12.03
2018-12-05T19:26:28.656Z,13.37
2018-12-05T19:28:56.132Z,15.10
2018-12-05T19:31:23.600Z,15.87
2018-12-05T19:33:51.072Z,17.73
2018-12-05T19:36:18.523Z,9.73
2018-12-05T19:38:45.991Z,17.33
2018-12-05T19:41:13.446Z,13.50
2018-12-05T19:43:40.928Z,10.47
2018-12-05T19:46:08.423Z,13.87
2018-12-05T19:48:35.899Z,13.67
2018-12-05T19:51:03.459Z,14.80
2018-12-05T19:53:30.927Z,10.47
2018-12-05T19:55:58.375Z,13.67
2018-12-05T19:58:25.843Z,10.40
2018-12-05T20:00:53.303Z,12.73
2018-12-05T20:03:20.844Z,9.00
2018-12-05T20:05:48.367Z,10.23
2018-12-05T20:08:15.919Z,10.63
2018-12-05T20:10:43.379Z,15.43
2018-12-05T20:13:10.859Z,9.47
2018-12-05T20:15:38.382Z,13.10
2018-12-05T20:18:05.822Z,12.20
2018-12-05T20:20:33.301Z,12.43
2018-12-05T20:23:00.770Z,14.17
2018-12-05T20:25:28.215Z,18.83
2018-12-05T20:27:55.711Z,15.30
2018-12-05T20:30:23.182Z,8.67
2018-12-05T20:32:50.653Z,13.90
2018-12-05T20:35:18.188Z,15.60
2018-12-05T20:37:45.670Z,12.03
2018-12-05T20:40:13.154Z,11.30
2018-12-05T20:42:40.623Z,11.67
2018-12-05T20:45:08.235Z,11.40
2018-12-05T20:47:35.690Z,13.33
2018-12-05T20:50:04.904Z,15.57
2018-12-05T20:52:32.464Z,14.03
2018-12-05T20:54:59.917Z,9.93
2018-12-05T20:57:27.526Z,12.47
2018-12-05T20:59:55.047Z,14.33
2018-12-05T21:02:22.542Z,11.83
2018-12-05T21:04:50.001Z,15.80
2018-12-05T21:07:17.449Z,13.40
2018-12-05T21:09:44.944Z,13.40
2018-12-05T21:12:12.393Z,12.80
2018-12-05T21:14:39.921Z,12.10
2018-12-05T21:17:07.416Z,14.63
2018-12-05T21:19:34.891Z,15.43
2018-12-05T21:22:02.335Z,14.80
2018-12-05T21:24:29.812Z,13.73
2018-12-05T21:26:57.276Z,14.83
2018-12-05T21:29:24.724Z,13.80
2018-12-05T21:31:52.179Z,16.90
2018-12-05T21:34:19.646Z,14.10
2018-12-05T21:36:47.118Z,12.60
2018-12-05T21:39:14.559Z,11.13
2018-12-05T21:41:42.027Z,14.77
2018-12-05T21:44:09.483Z,11.50
2018-12-05T21:46:36.951Z,15.13
2018-12-05T21:49:04.431Z,12.30
2018-12-05T21:51:31.872Z,14.57
2018-12-05T21:53:59.404Z,14.60
2018-12-05T21:56:26.863Z,16.43
2018-12-05T21:58:54.322Z,14.90
2018-12-05T22:01:21.779Z,15.40
2018-12-05T22:03:49.242Z,14.07
2018-12-05T22:06:16.692Z,14.57
2018-12-05T22:08:44.160Z,10.67
2018-12-05T22:11:11.665Z,17.57
2018-12-05T22:13:39.321Z,15.03
2018-12-05T22:16:06.804Z,16.27
2018-12-05T22:18:34.393Z,13.23
2018-12-05T22:21:01.935Z,16.47
2018-12-05T22:23:29.493Z,14.53
2018-12-05T22:25:56.964Z,18.33
2018-12-05T22:28:24.419Z,13.97
2018-12-05T22:30:51.923Z,16.53
2018-12-05T22:33:19.353Z,14.10
2018-12-05T22:35:47.001Z,16.43
2018-12-05T22:38:14.451Z,15.90
2018-12-05T22:40:41.933Z,17.07
2018-12-05T22:43:09.470Z,15.97
2018-12-05T22:45:36.914Z,13.60
2018-12-05T22:48:04.378Z,20.03
2018-12-05T22:50:31.822Z,19.33
2018-12-05T22:52:59.295Z,17.67
2018-12-05T22:55:26.750Z,14.80
2018-12-05T22:57:54.214Z,16.80
2018-12-05T23:00:24.491Z,26.10
2018-12-05T23:02:52.006Z,15.83
2018-12-05T23:05:19.461Z,18.20
2018-12-05T23:07:46.946Z,16.20
2018-12-05T23:10:14.472Z,17.37
2018-12-05T23:12:41.977Z,17.03
2018-12-05T23:15:09.503Z,18.77
2018-12-05T23:17:36.951Z,20.40
2018-12-05T23:20:05.035Z,20.93
2018-12-05T23:22:32.500Z,14.33
2018-12-05T23:24:59.951Z,14.37
2018-12-05T23:27:27.432Z,16.03
2018-12-05T23:29:54.870Z,17.33
2018-12-05T23:32:22.315Z,18.67
2018-12-05T23:34:49.782Z,16.17
2018-12-05T23:37:17.285Z,17.33
2018-12-05T23:39:44.736Z,19.53
2018-12-05T23:42:12.204Z,18.10
2018-12-05T23:44:39.699Z,15.80
2018-12-05T23:47:07.134Z,16.20
2018-12-05T23:49:34.608Z,18.13
2018-12-05T23:52:02.093Z,14.27
2018-12-05T23:54:29.538Z,16.00
2018-12-05T23:56:57.011Z,19.50
2018-12-05T23:59:24.455Z,13.17
